Time;durP1;ratioP1;P1;durP2;ratioP2;P2;SDS_P1;SDS_P2;PMS_P1;PMS_P2;Temp;Humidity;BMP_temperature;BMP_pressure;BME280_temperature;BME280_humidity;BME280_pressure;Samples;Min_cycle;Max_cycle;Signal;HPM_P1;HPM_P2
2021/10/10 00:01:38;;;;;;;;;;;4.00;99.90;;;;;;8395097;28;19915;-64
2021/10/10 00:05:38;;;;;;;;;;;4.10;99.90;;;;;;8394502;28;19920;-64
2021/10/10 00:09:39;;;;;;;;;;;4.10;99.90;;;;;;8393488;28;19912;-64
2021/10/10 00:13:39;;;;;;;;;;;4.20;99.90;;;;;;8391963;28;20011;-64
2021/10/10 00:17:40;;;;;;;;;;;4.20;99.90;;;;;;8393730;28;19912;-64
2021/10/10 00:21:40;;;;;;;;;;;4.20;99.90;;;;;;8394001;28;19935;-64
2021/10/10 00:25:41;;;;;;;;;;;4.10;99.90;;;;;;8394102;28;19974;-64
2021/10/10 00:29:41;;;;;;;;;;;4.00;99.90;;;;;;8393795;28;19909;-65
2021/10/10 00:33:41;;;;;;;;;;;4.00;99.90;;;;;;8392392;28;20003;-64
2021/10/10 00:37:42;;;;;;;;;;;3.80;99.90;;;;;;8393193;28;20002;-65
2021/10/10 00:41:42;;;;;;;;;;;3.60;99.90;;;;;;8390100;28;19924;-65
2021/10/10 00:45:49;;;;;;;;;;;3.50;99.90;;;;;;8376166;28;19912;-65
2021/10/10 00:49:50;;;;;;;;;;;3.40;99.90;;;;;;8360089;28;19913;-65
2021/10/10 00:53:50;;;;;;;;;;;3.30;99.90;;;;;;8360204;28;20441;-65
2021/10/10 00:57:51;;;;;;;;;;;3.20;99.90;;;;;;8359738;28;20272;-65
2021/10/10 01:01:52;;;;;;;;;;;3.20;99.90;;;;;;8359928;28;19916;-65
2021/10/10 01:05:52;;;;;;;;;;;3.30;99.90;;;;;;8359472;28;19916;-65
2021/10/10 01:09:53;;;;;;;;;;;3.40;99.90;;;;;;8359792;28;19986;-65
2021/10/10 01:13:54;;;;;;;;;;;3.30;99.90;;;;;;8359264;28;19909;-65
2021/10/10 01:17:54;;;;;;;;;;;3.20;99.90;;;;;;8366293;28;19921;-65
2021/10/10 01:21:55;;;;;;;;;;;3.00;99.90;;;;;;8392559;28;20007;-64
2021/10/10 01:25:56;;;;;;;;;;;3.30;99.90;;;;;;8390845;28;19962;-65
2021/10/10 01:29:56;;;;;;;;;;;3.20;99.90;;;;;;8391269;28;19909;-65
2021/10/10 01:33:57;;;;;;;;;;;2.90;99.90;;;;;;8391177;28;20504;-65
2021/10/10 01:37:57;;;;;;;;;;;2.70;99.90;;;;;;8392129;28;19931;-65
2021/10/10 01:41:58;;;;;;;;;;;3.00;99.90;;;;;;8392276;28;19912;-65
2021/10/10 01:45:58;;;;;;;;;;;3.00;99.90;;;;;;8391836;28;20138;-64
2021/10/10 01:49:58;;;;;;;;;;;3.20;99.90;;;;;;8392091;28;20653;-65
2021/10/10 01:54:00;;;;;;;;;;;3.10;99.90;;;;;;8392054;28;20604;-65
2021/10/10 01:58:00;;;;;;;;;;;3.00;99.90;;;;;;8391829;28;19908;-64
2021/10/10 02:02:01;;;;;;;;;;;2.90;99.90;;;;;;8391888;28;19916;-64
2021/10/10 02:06:01;;;;;;;;;;;2.80;99.90;;;;;;8390934;28;19953;-65
2021/10/10 02:10:02;;;;;;;;;;;3.00;99.90;;;;;;8390685;28;19908;-65
2021/10/10 02:14:03;;;;;;;;;;;2.90;99.90;;;;;;8391255;28;19954;-65
2021/10/10 02:18:04;;;;;;;;;;;2.90;99.90;;;;;;8391637;28;19909;-65
2021/10/10 02:22:04;;;;;;;;;;;2.70;99.90;;;;;;8391637;28;19939;-65
2021/10/10 02:26:05;;;;;;;;;;;2.60;99.90;;;;;;8390544;28;20259;-64
2021/10/10 02:30:06;;;;;;;;;;;2.50;99.90;;;;;;8391248;28;19982;-64
2021/10/10 02:34:07;;;;;;;;;;;2.40;99.90;;;;;;8391819;28;20011;-65
2021/10/10 02:38:07;;;;;;;;;;;2.30;99.90;;;;;;8397401;28;20344;-65
2021/10/10 02:42:08;;;;;;;;;;;2.20;99.90;;;;;;8397648;28;19954;-65
2021/10/10 02:46:08;;;;;;;;;;;2.10;99.90;;;;;;8396646;28;19930;-65
2021/10/10 02:50:09;;;;;;;;;;;2.30;99.90;;;;;;8397177;28;20006;-65
2021/10/10 02:54:09;;;;;;;;;;;2.20;99.90;;;;;;8397121;28;20037;-64
2021/10/10 02:58:10;;;;;;;;;;;2.10;99.90;;;;;;8396641;28;20003;-64
2021/10/10 03:02:10;;;;;;;;;;;2.10;99.90;;;;;;8396628;28;20536;-64
2021/10/10 03:06:10;;;;;;;;;;;2.20;99.90;;;;;;8396245;28;19908;-64
2021/10/10 03:10:11;;;;;;;;;;;2.40;99.90;;;;;;8395180;28;19923;-65
2021/10/10 03:14:11;;;;;;;;;;;2.20;99.90;;;;;;8395586;28;19908;-65
2021/10/10 03:18:12;;;;;;;;;;;2.20;99.90;;;;;;8394885;28;19961;-65
2021/10/10 03:22:12;;;;;;;;;;;2.10;99.90;;;;;;8396053;28;19924;-65
2021/10/10 03:26:13;;;;;;;;;;;2.20;99.90;;;;;;8395652;28;19909;-65
2021/10/10 03:30:14;;;;;;;;;;;2.20;99.90;;;;;;8383163;28;19916;-64
2021/10/10 03:34:15;;;;;;;;;;;2.30;99.90;;;;;;8377705;28;19920;-65
2021/10/10 03:38:15;;;;;;;;;;;2.20;99.90;;;;;;8376910;28;19913;-65
2021/10/10 03:42:16;;;;;;;;;;;2.20;99.90;;;;;;8377864;28;19908;-65
2021/10/10 03:46:17;;;;;;;;;;;2.00;99.90;;;;;;8376660;28;20255;-65
2021/10/10 03:50:18;;;;;;;;;;;2.00;99.90;;;;;;8392578;28;19908;-65
2021/10/10 03:58:25;;;;;;;;;;;2.00;99.90;;;;;;8361324;28;20027;-65
2021/10/10 04:02:25;;;;;;;;;;;1.90;99.90;;;;;;8361177;28;19923;-65
2021/10/10 04:06:26;;;;;;;;;;;1.80;99.90;;;;;;8359634;28;19909;-65
2021/10/10 04:10:26;;;;;;;;;;;1.90;99.90;;;;;;8361374;28;20007;-65
2021/10/10 04:14:27;;;;;;;;;;;2.10;99.90;;;;;;8360600;28;19917;-64
2021/10/10 04:18:27;;;;;;;;;;;2.10;99.90;;;;;;8372946;28;19912;-65
2021/10/10 04:22:28;;;;;;;;;;;1.80;99.90;;;;;;8394022;28;19916;-65
2021/10/10 04:26:28;;;;;;;;;;;1.60;99.90;;;;;;8393700;28;19916;-65
2021/10/10 04:30:29;;;;;;;;;;;1.70;99.90;;;;;;8392574;28;19913;-65
2021/10/10 04:34:29;;;;;;;;;;;1.70;99.90;;;;;;8393519;28;19920;-65
2021/10/10 04:38:30;;;;;;;;;;;1.80;99.90;;;;;;8393646;28;19913;-65
2021/10/10 04:42:32;;;;;;;;;;;1.90;99.90;;;;;;8393396;28;20519;-65
2021/10/10 04:46:33;;;;;;;;;;;2.00;99.90;;;;;;8391710;28;19909;-65
2021/10/10 04:50:33;;;;;;;;;;;2.00;99.90;;;;;;8393089;28;19914;-65
2021/10/10 04:54:34;;;;;;;;;;;1.90;99.90;;;;;;8391696;28;19937;-65
2021/10/10 04:58:34;;;;;;;;;;;2.10;99.90;;;;;;8392794;28;19916;-64
2021/10/10 05:02:35;;;;;;;;;;;2.10;99.90;;;;;;8392743;28;19944;-65
2021/10/10 05:06:35;;;;;;;;;;;2.00;99.90;;;;;;8392366;28;19908;-65
2021/10/10 05:10:36;;;;;;;;;;;2.00;99.90;;;;;;8392737;28;19908;-65
2021/10/10 05:14:36;;;;;;;;;;;1.70;99.90;;;;;;8392343;28;19928;-64
2021/10/10 05:18:37;;;;;;;;;;;1.70;99.90;;;;;;8392875;28;19908;-65
2021/10/10 05:22:37;;;;;;;;;;;1.90;99.90;;;;;;8392601;28;19921;-64
2021/10/10 05:26:38;;;;;;;;;;;1.90;99.90;;;;;;8392225;28;19915;-65
2021/10/10 05:30:40;;;;;;;;;;;2.10;99.90;;;;;;8392064;28;20160;-65
2021/10/10 05:34:40;;;;;;;;;;;2.10;99.90;;;;;;8391131;28;19912;-65
2021/10/10 05:38:41;;;;;;;;;;;2.20;99.90;;;;;;8391259;28;19909;-64
2021/10/10 05:42:41;;;;;;;;;;;2.40;99.90;;;;;;8392339;28;19908;-65
2021/10/10 05:46:42;;;;;;;;;;;2.40;99.90;;;;;;8390830;28;19920;-65
2021/10/10 05:50:42;;;;;;;;;;;2.50;99.90;;;;;;8392482;28;19917;-65
2021/10/10 05:54:43;;;;;;;;;;;2.80;99.90;;;;;;8392269;28;19928;-65
2021/10/10 05:58:44;;;;;;;;;;;2.90;99.90;;;;;;8392725;28;19909;-65
2021/10/10 06:02:45;;;;;;;;;;;2.90;99.90;;;;;;8392066;28;19908;-64
2021/10/10 06:06:46;;;;;;;;;;;3.00;99.90;;;;;;8391742;28;19954;-65
2021/10/10 06:10:46;;;;;;;;;;;3.10;99.90;;;;;;8394213;28;20027;-64
2021/10/10 06:14:50;;;;;;;;;;;3.30;99.90;;;;;;8397902;28;20500;-64
2021/10/10 06:18:51;;;;;;;;;;;3.30;99.90;;;;;;8396227;28;19908;-64
2021/10/10 06:22:51;;;;;;;;;;;3.50;99.90;;;;;;8396165;28;20011;-64
2021/10/10 06:26:52;;;;;;;;;;;3.70;99.90;;;;;;8397115;28;19920;-64
2021/10/10 06:30:53;;;;;;;;;;;3.60;99.90;;;;;;8378610;28;19916;-65
2021/10/10 06:34:54;;;;;;;;;;;3.70;99.90;;;;;;8371530;28;19913;-65
2021/10/10 06:38:54;;;;;;;;;;;3.90;99.90;;;;;;8378823;28;20383;-64
2021/10/10 06:42:55;;;;;;;;;;;4.00;99.90;;;;;;8384989;28;19913;-64
2021/10/10 06:46:56;;;;;;;;;;;4.40;99.90;;;;;;8374196;28;19960;-64
2021/10/10 06:50:56;;;;;;;;;;;4.60;99.90;;;;;;8380976;28;19916;-64
2021/10/10 06:54:57;;;;;;;;;;;4.80;99.90;;;;;;8392284;28;19916;-64
2021/10/10 06:58:57;;;;;;;;;;;5.80;99.90;;;;;;8376414;28;19982;-64
2021/10/10 07:02:58;;;;;;;;;;;6.00;99.90;;;;;;8382379;28;20174;-65
2021/10/10 07:06:59;;;;;;;;;;;6.50;99.90;;;;;;8394735;28;19939;-65
2021/10/10 07:10:59;;;;;;;;;;;6.70;99.90;;;;;;8395576;28;20289;-65
2021/10/10 07:15:00;;;;;;;;;;;7.10;99.90;;;;;;8390924;28;19966;-65
2021/10/10 07:19:01;;;;;;;;;;;7.00;99.90;;;;;;8379492;28;19920;-65
2021/10/10 07:27:11;;;;;;;;;;;7.30;99.90;;;;;;8368021;28;20359;-65
2021/10/10 07:31:12;;;;;;;;;;;7.60;99.90;;;;;;8377955;28;20000;-65
2021/10/10 07:35:12;;;;;;;;;;;7.70;99.90;;;;;;8381952;28;19974;-64
2021/10/10 07:39:13;;;;;;;;;;;8.10;99.90;;;;;;8385608;28;19912;-64
2021/10/10 07:43:13;;;;;;;;;;;8.70;99.90;;;;;;8365737;28;19960;-64
2021/10/10 07:47:47;;;;;;;;;;;8.60;99.90;;;;;;8374669;28;19912;-65
2021/10/10 07:51:36;;;;;;;;;;;8.50;99.90;;;;;;8384746;28;19921;-65
2021/10/10 07:55:36;;;;;;;;;;;8.60;99.90;;;;;;8370895;28;19921;-65
2021/10/10 07:59:37;;;;;;;;;;;8.40;99.90;;;;;;8364706;28;20337;-64
2021/10/10 08:03:38;;;;;;;;;;;8.20;99.90;;;;;;8373556;28;19923;-67
2021/10/10 08:07:38;;;;;;;;;;;8.20;99.90;;;;;;8361915;28;19924;-66
2021/10/10 08:11:39;;;;;;;;;;;8.60;99.90;;;;;;8364765;28;19916;-67
2021/10/10 08:15:39;;;;;;;;;;;8.70;99.90;;;;;;8370991;28;19920;-66
2021/10/10 08:19:40;;;;;;;;;;;8.40;99.90;;;;;;8363148;28;19917;-66
2021/10/10 08:23:40;;;;;;;;;;;8.00;99.90;;;;;;8387746;28;19924;-66
2021/10/10 08:27:42;;;;;;;;;;;7.70;99.90;;;;;;8381488;28;19912;-66
2021/10/10 08:31:43;;;;;;;;;;;7.60;99.90;;;;;;8362599;28;19916;-67
2021/10/10 08:35:44;;;;;;;;;;;8.20;99.90;;;;;;8360048;28;19917;-67
2021/10/10 08:39:44;;;;;;;;;;;8.90;99.90;;;;;;8365758;28;19920;-66
2021/10/10 08:43:46;;;;;;;;;;;9.30;99.90;;;;;;8388358;28;19955;-66
2021/10/10 08:47:49;;;;;;;;;;;9.40;99.90;;;;;;8381131;28;19909;-67
2021/10/10 08:51:50;;;;;;;;;;;9.50;99.90;;;;;;8358976;28;19913;-67
2021/10/10 08:55:51;;;;;;;;;;;9.90;99.90;;;;;;8376332;28;19924;-67
2021/10/10 08:59:55;;;;;;;;;;;10.10;99.90;;;;;;8367917;28;19916;-66
2021/10/10 09:03:56;;;;;;;;;;;10.50;99.90;;;;;;8369327;28;20418;-67
2021/10/10 09:07:56;;;;;;;;;;;10.90;99.90;;;;;;8366970;28;19908;-67
2021/10/10 09:11:58;;;;;;;;;;;11.30;99.90;;;;;;8375252;28;19995;-67
2021/10/10 09:15:59;;;;;;;;;;;11.10;99.90;;;;;;8383528;28;19920;-67
2021/10/10 09:19:59;;;;;;;;;;;10.40;99.90;;;;;;8391865;28;19937;-67
2021/10/10 09:24:00;;;;;;;;;;;10.30;99.90;;;;;;8391527;28;19934;-67
2021/10/10 09:28:17;;;;;;;;;;;10.40;99.90;;;;;;8362400;28;19924;-67
2021/10/10 09:32:20;;;;;;;;;;;10.50;99.90;;;;;;8374396;28;19917;-67
2021/10/10 09:36:25;;;;;;;;;;;10.40;99.90;;;;;;8390772;28;20000;-67
2021/10/10 09:40:31;;;;;;;;;;;10.50;99.90;;;;;;8377232;28;19913;-67
2021/10/10 09:44:42;;;;;;;;;;;10.90;99.90;;;;;;8368210;28;19920;-67
2021/10/10 09:48:43;;;;;;;;;;;11.60;99.90;;;;;;8379478;28;20405;-67
2021/10/10 09:52:43;;;;;;;;;;;11.60;99.90;;;;;;8371930;28;19913;-67
2021/10/10 09:57:03;;;;;;;;;;;11.40;99.90;;;;;;8375769;28;19916;-67
2021/10/10 10:01:18;;;;;;;;;;;11.30;99.90;;;;;;8372378;28;19943;-67
2021/10/10 10:05:38;;;;;;;;;;;11.50;99.90;;;;;;8370417;28;19916;-66
2021/10/10 10:09:38;;;;;;;;;;;11.50;99.90;;;;;;8378340;28;20336;-67
2021/10/10 10:13:39;;;;;;;;;;;11.90;99.90;;;;;;8372986;28;19921;-68
2021/10/10 10:17:39;;;;;;;;;;;11.70;99.90;;;;;;8379387;28;19924;-67
2021/10/10 10:21:40;;;;;;;;;;;11.40;99.90;;;;;;8378660;28;19950;-67
2021/10/10 10:25:41;;;;;;;;;;;11.20;99.90;;;;;;8377797;28;19970;-67
2021/10/10 10:29:42;;;;;;;;;;;11.30;99.90;;;;;;8377911;28;20429;-67
2021/10/10 10:33:43;;;;;;;;;;;12.00;99.90;;;;;;8380819;28;20213;-67
2021/10/10 10:37:43;;;;;;;;;;;13.80;99.90;;;;;;8380215;28;20356;-68
2021/10/10 10:41:50;;;;;;;;;;;17.30;99.90;;;;;;8388815;28;19916;-68
2021/10/10 10:46:04;;;;;;;;;;;20.30;94.50;;;;;;8370025;28;19923;-66
2021/10/10 10:50:06;;;;;;;;;;;21.30;85.90;;;;;;8378579;28;19944;-66
2021/10/10 10:54:25;;;;;;;;;;;22.00;78.50;;;;;;8397039;28;20042;-67
2021/10/10 10:58:43;;;;;;;;;;;23.40;71.90;;;;;;8388268;28;19924;-67
2021/10/10 11:02:47;;;;;;;;;;;25.30;66.80;;;;;;8393474;28;19913;-67
2021/10/10 11:06:57;;;;;;;;;;;26.60;57.00;;;;;;8385301;28;19913;-67
2021/10/10 11:11:07;;;;;;;;;;;27.50;53.80;;;;;;8380759;28;20005;-68
2021/10/10 11:15:11;;;;;;;;;;;26.90;52.60;;;;;;8375189;28;19912;-69
2021/10/10 11:19:12;;;;;;;;;;;27.80;49.60;;;;;;8372605;28;19912;-69
2021/10/10 11:23:13;;;;;;;;;;;27.70;48.50;;;;;;8376384;28;20390;-69
2021/10/10 11:27:13;;;;;;;;;;;27.70;48.00;;;;;;8364401;28;19919;-68
2021/10/10 11:31:21;;;;;;;;;;;28.60;46.70;;;;;;8361906;28;20011;-67
2021/10/10 11:35:22;;;;;;;;;;;27.70;45.90;;;;;;8383959;28;19932;-68
2021/10/10 11:39:30;;;;;;;;;;;27.20;48.00;;;;;;8388856;28;19917;-68
2021/10/10 11:43:31;;;;;;;;;;;27.70;47.80;;;;;;8368303;28;19917;-69
2021/10/10 11:47:31;;;;;;;;;;;30.00;43.50;;;;;;8361647;28;19913;-69
2021/10/10 11:51:35;;;;;;;;;;;29.50;42.20;;;;;;8365103;28;19912;-69
2021/10/10 11:55:43;;;;;;;;;;;31.40;41.40;;;;;;8371047;28;19917;-69
2021/10/10 11:59:51;;;;;;;;;;;32.80;37.70;;;;;;8378746;28;19912;-69
2021/10/10 12:03:51;;;;;;;;;;;33.70;38.10;;;;;;8369999;28;19917;-69
2021/10/10 12:07:53;;;;;;;;;;;34.40;34.80;;;;;;8357153;28;20298;-69
2021/10/10 12:12:14;;;;;;;;;;;35.10;34.70;;;;;;8373328;28;19916;-69
2021/10/10 12:16:14;;;;;;;;;;;35.70;33.60;;;;;;8373786;28;20014;-69
2021/10/10 12:20:14;;;;;;;;;;;35.30;32.50;;;;;;8372590;28;20520;-68
2021/10/10 12:24:17;;;;;;;;;;;34.30;33.60;;;;;;8366946;28;19921;-69
2021/10/10 12:28:18;;;;;;;;;;;34.80;32.70;;;;;;8372556;28;19924;-69
2021/10/10 12:32:24;;;;;;;;;;;34.30;32.30;;;;;;8366518;28;19938;-69
2021/10/10 12:36:24;;;;;;;;;;;33.60;33.60;;;;;;8365834;28;19917;-69
2021/10/10 12:40:34;;;;;;;;;;;34.60;32.40;;;;;;8361050;28;19912;-69
2021/10/10 12:44:35;;;;;;;;;;;35.20;32.10;;;;;;8369766;28;20428;-69
2021/10/10 12:48:35;;;;;;;;;;;36.20;30.50;;;;;;8367925;28;19913;-69
2021/10/10 12:52:37;;;;;;;;;;;36.90;30.50;;;;;;8368854;28;20003;-67
2021/10/10 12:56:37;;;;;;;;;;;37.80;29.50;;;;;;8368190;28;19927;-67
2021/10/10 13:00:40;;;;;;;;;;;38.80;28.30;;;;;;8373011;28;20398;-67
2021/10/10 13:04:41;;;;;;;;;;;38.00;28.30;;;;;;8368634;28;20306;-66
2021/10/10 13:08:45;;;;;;;;;;;37.70;28.00;;;;;;8356207;28;19917;-66
2021/10/10 13:12:46;;;;;;;;;;;37.30;28.90;;;;;;8361262;28;19917;-66
2021/10/10 13:16:46;;;;;;;;;;;37.10;29.50;;;;;;8359265;28;19920;-65
2021/10/10 13:20:47;;;;;;;;;;;36.40;28.60;;;;;;8372363;28;20546;-65
2021/10/10 13:24:51;;;;;;;;;;;34.80;30.40;;;;;;8387308;28;19912;-65
2021/10/10 13:28:51;;;;;;;;;;;35.00;30.20;;;;;;8384244;28;20009;-66
2021/10/10 13:32:52;;;;;;;;;;;34.90;30.00;;;;;;8363341;28;20391;-67
2021/10/10 13:36:53;;;;;;;;;;;34.80;30.90;;;;;;8357630;28;19932;-67
2021/10/10 13:40:54;;;;;;;;;;;35.20;29.80;;;;;;8357643;28;20066;-66
2021/10/10 13:44:54;;;;;;;;;;;36.20;28.70;;;;;;8370465;28;20004;-66
2021/10/10 13:48:55;;;;;;;;;;;36.30;29.30;;;;;;8372137;28;19951;-67
2021/10/10 13:52:55;;;;;;;;;;;35.70;29.30;;;;;;8358995;28;20386;-66
2021/10/10 13:56:56;;;;;;;;;;;35.50;28.90;;;;;;8357223;28;20007;-65
2021/10/10 14:00:56;;;;;;;;;;;31.30;32.70;;;;;;8353624;28;19920;-67
2021/10/10 14:04:57;;;;;;;;;;;27.20;37.70;;;;;;8353672;28;19920;-67
2021/10/10 14:08:57;;;;;;;;;;;24.00;44.40;;;;;;8356680;28;19920;-67
2021/10/10 14:12:58;;;;;;;;;;;22.30;47.70;;;;;;8374130;28;19934;-67
2021/10/10 14:16:59;;;;;;;;;;;21.30;50.40;;;;;;8356653;28;19922;-67
2021/10/10 14:20:59;;;;;;;;;;;20.10;52.60;;;;;;8355664;28;19928;-67
2021/10/10 14:25:00;;;;;;;;;;;19.20;55.20;;;;;;8371558;28;20032;-67
2021/10/10 14:29:00;;;;;;;;;;;18.60;56.30;;;;;;8364836;28;19921;-67
2021/10/10 14:33:02;;;;;;;;;;;18.00;56.20;;;;;;8375093;28;19912;-67
2021/10/10 14:37:04;;;;;;;;;;;17.10;59.60;;;;;;8374555;28;19934;-67
2021/10/10 14:41:13;;;;;;;;;;;16.70;61.90;;;;;;8370227;28;19917;-67
2021/10/10 14:45:17;;;;;;;;;;;16.40;62.00;;;;;;8369797;28;19927;-67
2021/10/10 14:49:17;;;;;;;;;;;16.10;63.40;;;;;;8360084;28;20337;-67
2021/10/10 14:53:19;;;;;;;;;;;15.60;67.60;;;;;;8371150;28;19966;-67
2021/10/10 14:57:24;;;;;;;;;;;15.20;68.30;;;;;;8388207;28;19956;-67
2021/10/10 15:01:25;;;;;;;;;;;15.10;71.80;;;;;;8391766;28;19965;-67
2021/10/10 15:05:27;;;;;;;;;;;15.00;72.10;;;;;;8391009;28;19977;-68
2021/10/10 15:09:28;;;;;;;;;;;15.20;74.60;;;;;;8389601;28;19935;-67
2021/10/10 15:13:29;;;;;;;;;;;15.10;70.80;;;;;;8374715;28;19917;-67
2021/10/10 15:17:29;;;;;;;;;;;15.00;73.60;;;;;;8373199;28;19909;-67
2021/10/10 15:21:29;;;;;;;;;;;14.70;76.20;;;;;;8383604;28;20387;-67
2021/10/10 15:25:30;;;;;;;;;;;14.60;77.30;;;;;;8388342;28;19930;-67
2021/10/10 15:29:30;;;;;;;;;;;14.60;78.00;;;;;;8382367;28;20011;-67
2021/10/10 15:33:31;;;;;;;;;;;14.40;79.20;;;;;;8374456;28;19917;-67
2021/10/10 15:37:32;;;;;;;;;;;14.20;79.20;;;;;;8382165;28;19916;-67
2021/10/10 15:41:32;;;;;;;;;;;13.90;83.60;;;;;;8378463;28;20301;-67
2021/10/10 15:45:33;;;;;;;;;;;13.50;83.70;;;;;;8374747;28;20331;-67
2021/10/10 15:49:33;;;;;;;;;;;13.10;87.10;;;;;;8374584;28;19916;-67
2021/10/10 15:53:34;;;;;;;;;;;13.00;89.40;;;;;;8377056;28;20341;-67
2021/10/10 15:57:34;;;;;;;;;;;12.80;90.80;;;;;;8362598;28;19916;-67
2021/10/10 16:01:35;;;;;;;;;;;12.50;91.20;;;;;;8365725;28;19923;-67
2021/10/10 16:05:36;;;;;;;;;;;12.50;91.30;;;;;;8360609;28;19924;-67
2021/10/10 16:09:37;;;;;;;;;;;12.20;92.60;;;;;;8359456;28;19909;-67
2021/10/10 16:13:37;;;;;;;;;;;11.70;95.00;;;;;;8360868;28;20360;-67
2021/10/10 16:17:44;;;;;;;;;;;11.40;98.20;;;;;;8359424;28;19943;-67
2021/10/10 16:21:45;;;;;;;;;;;11.60;99.90;;;;;;8360617;28;19917;-67
2021/10/10 16:25:45;;;;;;;;;;;11.30;99.90;;;;;;8360501;28;20015;-68
2021/10/10 16:29:46;;;;;;;;;;;10.80;99.90;;;;;;8360747;28;19913;-67
2021/10/10 16:33:49;;;;;;;;;;;10.60;99.90;;;;;;8360640;28;19909;-67
2021/10/10 16:42:19;;;;;;;;;;;10.20;99.90;;;;;;8336674;28;19959;-67
2021/10/10 16:46:19;;;;;;;;;;;10.00;99.90;;;;;;8359816;28;20399;-67
2021/10/10 16:50:20;;;;;;;;;;;9.70;99.90;;;;;;8387294;28;19919;-67
2021/10/10 16:54:20;;;;;;;;;;;9.60;99.90;;;;;;8392502;28;19908;-67
2021/10/10 16:58:21;;;;;;;;;;;9.40;99.90;;;;;;8392776;28;19958;-67
2021/10/10 17:02:21;;;;;;;;;;;9.40;99.90;;;;;;8391577;28;20386;-66
2021/10/10 17:06:22;;;;;;;;;;;9.10;99.90;;;;;;8392331;28;19981;-66
2021/10/10 17:10:22;;;;;;;;;;;8.70;99.90;;;;;;8392625;28;19916;-67
2021/10/10 17:14:22;;;;;;;;;;;8.40;99.90;;;;;;8392306;28;19935;-67
2021/10/10 17:18:23;;;;;;;;;;;8.30;99.90;;;;;;8390877;28;19909;-66
2021/10/10 17:22:23;;;;;;;;;;;8.10;99.90;;;;;;8391998;28;19916;-67
2021/10/10 17:26:24;;;;;;;;;;;7.90;99.90;;;;;;8391904;28;19912;-66
2021/10/10 17:30:24;;;;;;;;;;;7.90;99.90;;;;;;8392341;28;19909;-66
2021/10/10 17:34:28;;;;;;;;;;;7.90;99.90;;;;;;8390863;28;19909;-66
2021/10/10 17:38:29;;;;;;;;;;;7.60;99.90;;;;;;8391830;28;19919;-66
2021/10/10 17:42:29;;;;;;;;;;;7.30;99.90;;;;;;8390761;28;19909;-67
2021/10/10 17:46:30;;;;;;;;;;;7.10;99.90;;;;;;8390480;28;19909;-67
2021/10/10 17:50:30;;;;;;;;;;;6.90;99.90;;;;;;8392222;28;19998;-66
2021/10/10 17:54:31;;;;;;;;;;;6.80;99.90;;;;;;8390300;28;20024;-67
2021/10/10 17:58:41;;;;;;;;;;;6.80;99.90;;;;;;8391864;28;19922;-67
2021/10/10 18:02:53;;;;;;;;;;;6.80;99.90;;;;;;8392010;28;19912;-67
2021/10/10 18:15:26;;;;;;;;;;;6.10;99.90;;;;;;8374451;28;20008;-66
2021/10/10 18:19:27;;;;;;;;;;;6.10;99.90;;;;;;8370463;28;19920;-67
2021/10/10 18:23:27;;;;;;;;;;;6.10;99.90;;;;;;8368935;28;19921;-66
2021/10/10 18:27:28;;;;;;;;;;;6.00;99.90;;;;;;8372347;28;19912;-66
2021/10/10 18:31:28;;;;;;;;;;;6.20;99.90;;;;;;8372545;28;19920;-66
2021/10/10 18:35:29;;;;;;;;;;;6.20;99.90;;;;;;8378439;28;20015;-66
2021/10/10 18:39:31;;;;;;;;;;;6.00;99.90;;;;;;8369861;28;20523;-66
2021/10/10 18:43:31;;;;;;;;;;;5.90;99.90;;;;;;8388655;28;19955;-66
2021/10/10 18:47:32;;;;;;;;;;;5.70;99.90;;;;;;8376602;28;20302;-66
2021/10/10 18:51:32;;;;;;;;;;;5.60;99.90;;;;;;8374496;28;19978;-66
2021/10/10 18:55:34;;;;;;;;;;;5.40;99.90;;;;;;8368669;28;19970;-66
2021/10/10 18:59:35;;;;;;;;;;;5.20;99.90;;;;;;8360359;28;20295;-66
2021/10/10 19:03:36;;;;;;;;;;;5.30;99.90;;;;;;8371254;28;19916;-66
2021/10/10 19:07:37;;;;;;;;;;;5.30;99.90;;;;;;8373074;28;19919;-66
2021/10/10 19:11:37;;;;;;;;;;;5.10;99.90;;;;;;8379296;28;20238;-66
2021/10/10 19:15:38;;;;;;;;;;;5.00;99.90;;;;;;8373776;28;20027;-66
2021/10/10 19:19:38;;;;;;;;;;;4.70;99.90;;;;;;8370104;28;20306;-66
2021/10/10 19:23:40;;;;;;;;;;;4.60;99.90;;;;;;8373765;28;19920;-66
2021/10/10 19:27:41;;;;;;;;;;;4.60;99.90;;;;;;8366086;28;19923;-66
2021/10/10 19:31:41;;;;;;;;;;;4.70;99.90;;;;;;8377831;28;19927;-65
2021/10/10 19:35:41;;;;;;;;;;;4.70;99.90;;;;;;8372495;28;20003;-65
2021/10/10 19:39:42;;;;;;;;;;;4.60;99.90;;;;;;8375601;28;20586;-65
2021/10/10 19:43:42;;;;;;;;;;;4.60;99.90;;;;;;8364567;28;20306;-65
2021/10/10 19:47:43;;;;;;;;;;;4.70;99.90;;;;;;8369839;28;19932;-65
2021/10/10 19:51:45;;;;;;;;;;;4.70;99.90;;;;;;8369792;28;19936;-65
2021/10/10 19:55:45;;;;;;;;;;;4.80;99.90;;;;;;8381190;28;19917;-65
2021/10/10 19:59:46;;;;;;;;;;;4.30;99.90;;;;;;8385959;28;19920;-65
2021/10/10 20:03:46;;;;;;;;;;;4.50;99.90;;;;;;8386483;28;19958;-65
2021/10/10 20:07:47;;;;;;;;;;;4.40;99.90;;;;;;8366718;28;20390;-65
2021/10/10 20:11:48;;;;;;;;;;;4.20;99.90;;;;;;8366708;28;19919;-65
2021/10/10 20:15:48;;;;;;;;;;;3.90;99.90;;;;;;8356049;28;19917;-65
2021/10/10 20:19:49;;;;;;;;;;;4.00;99.90;;;;;;8359837;28;19909;-65
2021/10/10 20:23:49;;;;;;;;;;;4.10;99.90;;;;;;8360660;28;19917;-65
2021/10/10 20:27:50;;;;;;;;;;;4.00;99.90;;;;;;8359950;28;19909;-65
2021/10/10 20:31:50;;;;;;;;;;;4.00;99.90;;;;;;8358536;28;20337;-65
2021/10/10 20:35:50;;;;;;;;;;;3.90;99.90;;;;;;8359916;28;19936;-65
2021/10/10 20:39:51;;;;;;;;;;;3.60;99.90;;;;;;8360243;28;19928;-65
2021/10/10 20:43:51;;;;;;;;;;;3.70;99.90;;;;;;8360245;28;19913;-65
2021/10/10 20:47:52;;;;;;;;;;;3.40;99.90;;;;;;8366598;28;19908;-65
2021/10/10 20:51:52;;;;;;;;;;;3.60;99.90;;;;;;8392849;28;19908;-65
2021/10/10 20:55:53;;;;;;;;;;;3.30;99.90;;;;;;8391742;28;19912;-64
2021/10/10 20:59:54;;;;;;;;;;;3.40;99.90;;;;;;8391793;28;19999;-65
2021/10/10 21:03:55;;;;;;;;;;;3.50;99.90;;;;;;8392544;28;19916;-65
2021/10/10 21:07:55;;;;;;;;;;;3.40;99.90;;;;;;8392617;28;19912;-65
2021/10/10 21:11:56;;;;;;;;;;;3.20;99.90;;;;;;8392948;28;19986;-65
2021/10/10 21:15:57;;;;;;;;;;;3.10;99.90;;;;;;8391293;28;20003;-65
2021/10/10 21:19:57;;;;;;;;;;;3.10;99.90;;;;;;8392636;28;19908;-65
2021/10/10 21:23:58;;;;;;;;;;;2.80;99.90;;;;;;8392577;28;19917;-65
2021/10/10 21:28:03;;;;;;;;;;;2.70;99.90;;;;;;8392119;28;19934;-65
2021/10/10 21:32:11;;;;;;;;;;;2.70;99.90;;;;;;8391354;28;19908;-65
2021/10/10 21:36:11;;;;;;;;;;;3.00;99.90;;;;;;8391807;28;19916;-65
2021/10/10 21:40:12;;;;;;;;;;;3.20;99.90;;;;;;8394139;28;19909;-65
2021/10/10 21:44:13;;;;;;;;;;;2.90;99.90;;;;;;8397825;28;19908;-65
2021/10/10 21:48:15;;;;;;;;;;;2.80;99.90;;;;;;8398416;28;19959;-65
2021/10/10 21:52:16;;;;;;;;;;;2.80;99.90;;;;;;8398782;28;19909;-65
2021/10/10 21:56:16;;;;;;;;;;;2.90;99.90;;;;;;8398344;28;19961;-65
2021/10/10 22:00:35;;;;;;;;;;;2.90;99.90;;;;;;8397361;28;19909;-65
2021/10/10 22:04:36;;;;;;;;;;;2.90;99.90;;;;;;8397796;28;19914;-65
2021/10/10 22:08:36;;;;;;;;;;;2.70;99.90;;;;;;8396899;28;19954;-65
2021/10/10 22:12:37;;;;;;;;;;;2.80;99.90;;;;;;8395629;28;19909;-65
2021/10/10 22:16:37;;;;;;;;;;;2.50;99.90;;;;;;8373975;28;19921;-65
2021/10/10 22:20:46;;;;;;;;;;;2.40;99.90;;;;;;8364419;28;19927;-65
2021/10/10 22:24:51;;;;;;;;;;;2.40;99.90;;;;;;8364302;28;19923;-65
2021/10/10 22:33:10;;;;;;;;;;;2.80;99.90;;;;;;8364712;28;20501;-65
2021/10/10 22:37:11;;;;;;;;;;;2.50;99.90;;;;;;8363713;28;19917;-65
2021/10/10 22:41:11;;;;;;;;;;;2.10;99.90;;;;;;8364123;28;19913;-65
2021/10/10 22:45:12;;;;;;;;;;;2.10;99.90;;;;;;8362929;28;19920;-65
2021/10/10 22:49:12;;;;;;;;;;;2.20;99.90;;;;;;8380157;28;19950;-65
2021/10/10 22:53:13;;;;;;;;;;;2.40;99.90;;;;;;8394399;28;19908;-65
2021/10/10 22:57:13;;;;;;;;;;;2.40;99.90;;;;;;8396209;28;19919;-65
2021/10/10 23:01:14;;;;;;;;;;;2.20;99.90;;;;;;8396354;28;19928;-65
2021/10/10 23:05:14;;;;;;;;;;;2.10;99.90;;;;;;8396198;28;19909;-65
2021/10/10 23:09:16;;;;;;;;;;;2.10;99.90;;;;;;8396390;28;19991;-65
2021/10/10 23:13:16;;;;;;;;;;;1.90;99.90;;;;;;8396213;28;19916;-65
2021/10/10 23:17:17;;;;;;;;;;;1.80;99.90;;;;;;8394222;28;19958;-65
2021/10/10 23:21:17;;;;;;;;;;;1.60;99.90;;;;;;8396487;28;20006;-65
2021/10/10 23:25:18;;;;;;;;;;;1.50;99.90;;;;;;8394362;28;19913;-65
2021/10/10 23:29:18;;;;;;;;;;;1.70;99.90;;;;;;8394317;28;20274;-65
2021/10/10 23:33:19;;;;;;;;;;;1.70;99.90;;;;;;8395521;28;19912;-65
2021/10/10 23:37:19;;;;;;;;;;;1.80;99.90;;;;;;8395032;28;20598;-65
2021/10/10 23:41:20;;;;;;;;;;;1.80;99.90;;;;;;8394163;28;19908;-65
2021/10/10 23:45:20;;;;;;;;;;;1.70;99.90;;;;;;8394815;28;19908;-65
2021/10/10 23:49:21;;;;;;;;;;;1.60;99.90;;;;;;8394966;28;20088;-65
2021/10/10 23:53:21;;;;;;;;;;;1.70;99.90;;;;;;8395380;28;20371;-65
2021/10/10 23:57:22;;;;;;;;;;;1.80;99.90;;;;;;8394243;28;19916;-65
